Accueil
METAR-TAF:

METAR-TAF

Aéroports :

Aéroport d'Owerri

Owerri, Nigeria

latitude: 5-25-35N, longitude: 7-12-20E, altitude: 114 m

METAR: absent

Heure: 20:00 (19:00 UTC)

Prévision

Le bulletin a été fait il y a 2 heures et 0 minutes, à 17:00 UTC
Prévision valable du 06 à 18 UTC au 07 à 24 UTC
Vent kt de nord
Visibilité: 8000 m
Nuages fragmentés à une hauteur de 1000 ft
Quelques nuages à une hauteur de 2000 ft, Cumulonimbus.
Temporairement
du 06 à 19 UTC au 06 à 21 UTC
orage
Evoluant progressivement
du 06 à 21 UTC au 06 à 23 UTC
Nuages fragmentés à une hauteur de 1000 ft
Temporairement
du 07 à 03 UTC au 07 à 07 UTC
Visibilité: 5000 m
brume

TAF: DNIM 061700Z 0618/0724 00000KT 8000 BKN010 FEW020CB TEMPO 0619/0621 TS BECMG 0621/0623 BKN010 TEMPO 0703/0707 5000 BR

Observations et prévisions météorologiques de plus de 4000 aéroports (messages METAR et TAF).

Les stations disponibles sont représentées par des disques jaunes et rouges sur la carte.

Passer la souris dessus pour voir le nom de la station.

Cliquer dessus pour voir les observations et prévisions météorologiques.

Pour changer de carte: cliquez sur les boutons verts avec une croix noire pour zoomer, sur le bouton vert avec un tiret pour effectuer un zoom arrière, ou sur les flèches vertes pour les cartes adjacentes.


METAR-TAF: